Decoded Metar for CYBW (CALGARY/SPRINGBA in AB, CANADA) (IATA:YBW) | Meteo·Mobile Aviation Weather
aviador You're here:

CYBW Decoded Metar

CALGARY/SPRINGBA in AB, CANADA
Report Time2019-02-16 07:16:00
UTC Time2019-02-16 07:40:44
Flight Rules mvfr MVFR
Wind340° at 09 kt
W.Decomp.*RWY 35: 8.2 kt HW 3.8 kt LCW
RWY 26: 3.8 kt HW 8.2 kt RCW
W.Rank340° ranks 7
Current wind is above 340° avg. (8.1)
Visibility4828 m
Phenomena:Light Snow
Clouds:Overcast 028 Hf
Expected CloudBase > 1,200 ft AGL from Temp-Dew spread
Ceiling2,800 ft
Temp-17°C (ISA -24)
Dew Point-20°C (78% RH)
AAT-23.8°C
QNH1004 hPa
Density Alt1,240 ft
Elevation3,937 ft
Report Wrong Elevation
Raw Report
SPECI CYBW 160716Z AUTO 34009KT 3SM -SN OVC028 M17/M20 A2966 RMK SLP144=

Extra information for CYBW:More info

Metar Taf Metar & Taf Last 4 Metars F.Rules Stats Wind Profile Meteogram Temp Stats Airport Information Weather charts Add Link Nearby VenuesMetar ALERT Operation Metar Decoded Social comments